LNI1793 WAMG-WAAA
Flight info
| Callsign | LNI1793 |
|---|---|
| Flight time | 1h 10m |
| Altitude | 32000 |
| Route | ENTEG W32 VENRU |
| Aircraft | B738/M-SDE2E3FGHIRWXY/LB1 |
Departure
| Time | 2026-04-23 10:16 |
|---|---|
| Airport | Jalaluddin Airport (WAMG) |
Arrival
| Time | 2026-04-23 11:27 |
|---|---|
| Airport | Sultan Hasanuddin International Airport (WAAA) |
| Time | Latitude | Longitude | Altitude | Speed | Heading |
|---|---|---|---|---|---|
| 2026-04-23 09:46 | 0.64016 | 122.84515 | 119 ft | 0 kts | 6° |
| 2026-04-23 10:06 | 0.64004 | 122.84511 | 117 ft | 3 kts | 51° |
| 2026-04-23 10:06 | 0.63999 | 122.84495 | 119 ft | 3 kts | 115° |
| 2026-04-23 10:06 | 0.64010 | 122.84481 | 119 ft | 3 kts | 139° |
| 2026-04-23 10:07 | 0.64017 | 122.84476 | 120 ft | 0 kts | 139° |
| 2026-04-23 10:09 | 0.64016 | 122.84476 | 120 ft | 1 kts | 139° |
| 2026-04-23 10:09 | 0.63991 | 122.84486 | 118 ft | 8 kts | 170° |
| 2026-04-23 10:10 | 0.63953 | 122.84457 | 119 ft | 6 kts | 257° |
| 2026-04-23 10:10 | 0.63954 | 122.84408 | 120 ft | 9 kts | 275° |
| 2026-04-23 10:10 | 0.63928 | 122.84349 | 118 ft | 11 kts | 200° |
| 2026-04-23 10:10 | 0.63855 | 122.84337 | 117 ft | 11 kts | 189° |
| 2026-04-23 10:11 | 0.63790 | 122.84347 | 119 ft | 10 kts | 118° |
| 2026-04-23 10:11 | 0.63782 | 122.84421 | 120 ft | 13 kts | 99° |
| 2026-04-23 10:11 | 0.63766 | 122.84544 | 116 ft | 22 kts | 97° |
| 2026-04-23 10:11 | 0.63744 | 122.84718 | 113 ft | 27 kts | 97° |
| 2026-04-23 10:12 | 0.63720 | 122.84895 | 114 ft | 25 kts | 98° |
| 2026-04-23 10:12 | 0.63700 | 122.85061 | 110 ft | 23 kts | 96° |
| 2026-04-23 10:12 | 0.63681 | 122.85218 | 115 ft | 22 kts | 98° |
| 2026-04-23 10:12 | 0.63659 | 122.85370 | 114 ft | 22 kts | 98° |
| 2026-04-23 10:13 | 0.63640 | 122.85518 | 117 ft | 21 kts | 97° |
| 2026-04-23 10:13 | 0.63621 | 122.85662 | 119 ft | 21 kts | 97° |
| 2026-04-23 10:13 | 0.63603 | 122.85802 | 121 ft | 20 kts | 97° |
| 2026-04-23 10:13 | 0.63594 | 122.85935 | 121 ft | 17 kts | 80° |
| 2026-04-23 10:14 | 0.63597 | 122.86002 | 120 ft | 4 kts | 141° |
| 2026-04-23 10:14 | 0.63582 | 122.85984 | 119 ft | 4 kts | 276° |
| 2026-04-23 10:14 | 0.63582 | 122.85980 | 119 ft | 0 kts | 274° |
| 2026-04-23 10:15 | 0.63582 | 122.85979 | 119 ft | 1 kts | 274° |
| 2026-04-23 10:15 | 0.63591 | 122.85895 | 120 ft | 37 kts | 277° |
| 2026-04-23 10:15 | 0.63658 | 122.85403 | 114 ft | 105 kts | 277° |
| 2026-04-23 10:15 | 0.63773 | 122.84478 | 119 ft | 160 kts | 276° |
| 2026-04-23 10:16 | 0.63930 | 122.83310 | 542 ft | 178 kts | 279° |
| 2026-04-23 10:16 | 0.64110 | 122.82026 | 1069 ft | 191 kts | 277° |
| 2026-04-23 10:16 | 0.64244 | 122.80715 | 1872 ft | 184 kts | 274° |
| 2026-04-23 10:16 | 0.64352 | 122.79401 | 2500 ft | 202 kts | 277° |
| 2026-04-23 10:17 | 0.64530 | 122.77907 | 2728 ft | 230 kts | 278° |
| 2026-04-23 10:17 | 0.64747 | 122.76244 | 2968 ft | 254 kts | 278° |
| 2026-04-23 10:17 | 0.64606 | 122.74444 | 3346 ft | 271 kts | 247° |
| 2026-04-23 10:17 | 0.63531 | 122.72889 | 4145 ft | 273 kts | 223° |
| 2026-04-23 10:18 | 0.61982 | 122.71811 | 5020 ft | 274 kts | 203° |
| 2026-04-23 10:18 | 0.60119 | 122.71358 | 5773 ft | 279 kts | 180° |
| 2026-04-23 10:18 | 0.58227 | 122.71690 | 6572 ft | 279 kts | 156° |
| 2026-04-23 10:18 | 0.56587 | 122.72715 | 7315 ft | 280 kts | 134° |
| 2026-04-23 10:19 | 0.55305 | 122.74195 | 8036 ft | 284 kts | 127° |
| 2026-04-23 10:19 | 0.54072 | 122.75747 | 8824 ft | 287 kts | 127° |
| 2026-04-23 10:19 | 0.52838 | 122.77329 | 9575 ft | 291 kts | 126° |
| 2026-04-23 10:19 | 0.51591 | 122.78934 | 10244 ft | 297 kts | 126° |
| 2026-04-23 10:20 | 0.50276 | 122.80628 | 10447 ft | 320 kts | 126° |
| 2026-04-23 10:20 | 0.48865 | 122.82444 | 10678 ft | 340 kts | 126° |
| 2026-04-23 10:20 | 0.47394 | 122.84332 | 11169 ft | 348 kts | 126° |
| 2026-04-23 10:20 | 0.45733 | 122.86098 | 11784 ft | 354 kts | 143° |
| 2026-04-23 10:21 | 0.43503 | 122.87167 | 12459 ft | 360 kts | 164° |
| 2026-04-23 10:21 | 0.41009 | 122.87533 | 13089 ft | 365 kts | 173° |
| 2026-04-23 10:21 | 0.38461 | 122.87744 | 13658 ft | 370 kts | 174° |
| 2026-04-23 10:21 | 0.35879 | 122.87934 | 14184 ft | 374 kts | 174° |
| 2026-04-23 10:22 | 0.33309 | 122.88127 | 14751 ft | 376 kts | 174° |
| 2026-04-23 10:22 | 0.30691 | 122.88336 | 15312 ft | 379 kts | 173° |
| 2026-04-23 10:22 | 0.28054 | 122.88558 | 15857 ft | 382 kts | 173° |
| 2026-04-23 10:22 | 0.25396 | 122.88787 | 16388 ft | 385 kts | 173° |
| 2026-04-23 10:23 | 0.22717 | 122.89022 | 16926 ft | 388 kts | 173° |
| 2026-04-23 10:23 | 0.20021 | 122.89258 | 17463 ft | 391 kts | 173° |
| 2026-04-23 10:23 | 0.17300 | 122.89497 | 17983 ft | 394 kts | 173° |
| 2026-04-23 10:23 | 0.14560 | 122.89738 | 18439 ft | 397 kts | 173° |
| 2026-04-23 10:24 | 0.11806 | 122.89993 | 18900 ft | 398 kts | 172° |
| 2026-04-23 10:24 | 0.09039 | 122.90267 | 19364 ft | 400 kts | 172° |
| 2026-04-23 10:24 | 0.06264 | 122.90547 | 19809 ft | 402 kts | 172° |
| 2026-04-23 10:24 | 0.03469 | 122.90830 | 20242 ft | 405 kts | 172° |
| 2026-04-23 10:25 | 0.00659 | 122.91113 | 20676 ft | 407 kts | 172° |
| 2026-04-23 10:25 | -0.02168 | 122.91396 | 21096 ft | 409 kts | 172° |
| 2026-04-23 10:25 | -0.05004 | 122.91680 | 21517 ft | 411 kts | 172° |
| 2026-04-23 10:25 | -0.07864 | 122.91965 | 21920 ft | 414 kts | 172° |
| 2026-04-23 10:26 | -0.10737 | 122.92251 | 22320 ft | 416 kts | 172° |
| 2026-04-23 10:26 | -0.13622 | 122.92538 | 22710 ft | 418 kts | 172° |
| 2026-04-23 10:26 | -0.16527 | 122.92826 | 23094 ft | 420 kts | 172° |
| 2026-04-23 10:26 | -0.19446 | 122.93116 | 23459 ft | 423 kts | 172° |
| 2026-04-23 10:27 | -0.22377 | 122.93408 | 23762 ft | 425 kts | 172° |
| 2026-04-23 10:27 | -0.25328 | 122.93701 | 24069 ft | 427 kts | 172° |
| 2026-04-23 10:27 | -0.28290 | 122.93995 | 24376 ft | 428 kts | 172° |
| 2026-04-23 10:27 | -0.31262 | 122.94290 | 24674 ft | 430 kts | 172° |
| 2026-04-23 10:28 | -0.34244 | 122.94587 | 24967 ft | 432 kts | 172° |
| 2026-04-23 10:28 | -0.37243 | 122.94885 | 25252 ft | 434 kts | 172° |
| 2026-04-23 10:28 | -0.40261 | 122.95184 | 25547 ft | 436 kts | 173° |
| 2026-04-23 10:28 | -0.43306 | 122.95171 | 25805 ft | 442 kts | 186° |
| 2026-04-23 10:29 | -0.46251 | 122.94403 | 26090 ft | 446 kts | 200° |
| 2026-04-23 10:29 | -0.49024 | 122.92992 | 26386 ft | 450 kts | 211° |
| 2026-04-23 10:29 | -0.51650 | 122.91287 | 26674 ft | 452 kts | 212° |
| 2026-04-23 10:29 | -0.54278 | 122.89543 | 26929 ft | 454 kts | 212° |
| 2026-04-23 10:30 | -0.56915 | 122.87787 | 27187 ft | 456 kts | 212° |
| 2026-04-23 10:30 | -0.59562 | 122.86034 | 27446 ft | 458 kts | 212° |
| 2026-04-23 10:30 | -0.62231 | 122.84280 | 27709 ft | 460 kts | 212° |
| 2026-04-23 10:30 | -0.64913 | 122.82529 | 27981 ft | 461 kts | 211° |
| 2026-04-23 10:31 | -0.67612 | 122.80774 | 28227 ft | 463 kts | 211° |
| 2026-04-23 10:31 | -0.70323 | 122.79016 | 28467 ft | 465 kts | 211° |
| 2026-04-23 10:31 | -0.73040 | 122.77256 | 28705 ft | 467 kts | 211° |
| 2026-04-23 10:31 | -0.75771 | 122.75488 | 28955 ft | 468 kts | 211° |
| 2026-04-23 10:32 | -0.78508 | 122.73715 | 29192 ft | 470 kts | 211° |
| 2026-04-23 10:32 | -0.80328 | 122.72537 | 29350 ft | 471 kts | 211° |
| 2026-04-23 10:32 | -0.83087 | 122.70750 | 29571 ft | 473 kts | 211° |
| 2026-04-23 10:32 | -0.85848 | 122.68960 | 29796 ft | 474 kts | 211° |
| 2026-04-23 10:33 | -0.88622 | 122.67162 | 29996 ft | 476 kts | 211° |
| 2026-04-23 10:33 | -0.91405 | 122.65359 | 30202 ft | 477 kts | 211° |
| 2026-04-23 10:33 | -0.94188 | 122.63555 | 30409 ft | 478 kts | 211° |
| 2026-04-23 10:33 | -0.96979 | 122.61746 | 30619 ft | 479 kts | 211° |
| 2026-04-23 10:34 | -0.99776 | 122.59933 | 30813 ft | 480 kts | 211° |
| 2026-04-23 10:34 | -1.02568 | 122.58123 | 31006 ft | 481 kts | 211° |
| 2026-04-23 10:34 | -1.05377 | 122.56303 | 31203 ft | 482 kts | 211° |
| 2026-04-23 10:34 | -1.08185 | 122.54483 | 31408 ft | 482 kts | 211° |
| 2026-04-23 10:35 | -1.11908 | 122.52070 | 31746 ft | 480 kts | 211° |
| 2026-04-23 10:35 | -1.13795 | 122.50846 | 31902 ft | 479 kts | 211° |
| 2026-04-23 10:35 | -1.19403 | 122.47211 | 31888 ft | 480 kts | 211° |
| 2026-04-23 10:36 | -1.24990 | 122.43588 | 31888 ft | 477 kts | 211° |
| 2026-04-23 10:36 | -1.30555 | 122.39981 | 31877 ft | 476 kts | 211° |
| 2026-04-23 10:37 | -1.36101 | 122.36385 | 31884 ft | 475 kts | 211° |
| 2026-04-23 10:37 | -1.41643 | 122.32792 | 31885 ft | 475 kts | 211° |
| 2026-04-23 10:38 | -1.47162 | 122.29214 | 31873 ft | 476 kts | 211° |
| 2026-04-23 10:38 | -1.52762 | 122.25583 | 31872 ft | 478 kts | 211° |
| 2026-04-23 10:39 | -1.58309 | 122.21986 | 31861 ft | 479 kts | 211° |
| 2026-04-23 10:39 | -1.63901 | 122.18359 | 31860 ft | 480 kts | 211° |
| 2026-04-23 10:40 | -1.69510 | 122.14722 | 31857 ft | 481 kts | 211° |
| 2026-04-23 10:40 | -1.75130 | 122.11077 | 31855 ft | 482 kts | 211° |
| 2026-04-23 10:41 | -1.80759 | 122.07425 | 31855 ft | 482 kts | 211° |
| 2026-04-23 10:41 | -1.86391 | 122.03771 | 31852 ft | 483 kts | 211° |
| 2026-04-23 10:42 | -1.92022 | 122.00118 | 31851 ft | 482 kts | 211° |
| 2026-04-23 10:42 | -1.97515 | 121.96554 | 31848 ft | 482 kts | 211° |
| 2026-04-23 10:43 | -2.03130 | 121.92911 | 31849 ft | 482 kts | 211° |
| 2026-04-23 10:43 | -2.08749 | 121.89264 | 31851 ft | 481 kts | 211° |
| 2026-04-23 10:44 | -2.14364 | 121.85620 | 31852 ft | 481 kts | 211° |
| 2026-04-23 10:44 | -2.19974 | 121.81978 | 31855 ft | 481 kts | 211° |
| 2026-04-23 10:45 | -2.25580 | 121.78339 | 31861 ft | 480 kts | 211° |
| 2026-04-23 10:45 | -2.31189 | 121.74698 | 31862 ft | 480 kts | 211° |
| 2026-04-23 10:46 | -2.36792 | 121.71058 | 31876 ft | 481 kts | 211° |
| 2026-04-23 10:46 | -2.42375 | 121.67378 | 31871 ft | 482 kts | 214° |
| 2026-04-23 10:47 | -2.47620 | 121.63180 | 31882 ft | 483 kts | 218° |
| 2026-04-23 10:47 | -2.52760 | 121.58845 | 31881 ft | 483 kts | 218° |
| 2026-04-23 10:48 | -2.57927 | 121.54539 | 31878 ft | 483 kts | 217° |
| 2026-04-23 10:48 | -2.63120 | 121.50269 | 31874 ft | 483 kts | 217° |
| 2026-04-23 10:49 | -2.68315 | 121.46013 | 31870 ft | 483 kts | 217° |
| 2026-04-23 10:49 | -2.73483 | 121.41777 | 31873 ft | 483 kts | 217° |
| 2026-04-23 10:50 | -2.78673 | 121.37519 | 31873 ft | 482 kts | 217° |
| 2026-04-23 10:50 | -2.83862 | 121.33261 | 31867 ft | 483 kts | 217° |
| 2026-04-23 10:51 | -2.89053 | 121.29001 | 31859 ft | 483 kts | 217° |
| 2026-04-23 10:51 | -2.94253 | 121.24732 | 31865 ft | 483 kts | 217° |
| 2026-04-23 10:52 | -2.99450 | 121.20465 | 31863 ft | 483 kts | 217° |
| 2026-04-23 10:52 | -3.04638 | 121.16205 | 31865 ft | 483 kts | 217° |
| 2026-04-23 10:53 | -3.10164 | 121.12505 | 31866 ft | 476 kts | 197° |
| 2026-04-23 10:53 | -3.13362 | 121.11774 | 31853 ft | 471 kts | 182° |
| 2026-04-23 10:53 | -3.16618 | 121.11743 | 31763 ft | 465 kts | 176° |
| 2026-04-23 10:54 | -3.19815 | 121.11824 | 31484 ft | 455 kts | 176° |
| 2026-04-23 10:54 | -3.22955 | 121.11923 | 31257 ft | 450 kts | 176° |
| 2026-04-23 10:54 | -3.26080 | 121.12018 | 31020 ft | 449 kts | 176° |
| 2026-04-23 10:54 | -3.29208 | 121.12101 | 30818 ft | 451 kts | 176° |
| 2026-04-23 10:55 | -3.32355 | 121.12172 | 30585 ft | 453 kts | 176° |
| 2026-04-23 10:55 | -3.35504 | 121.12234 | 30367 ft | 454 kts | 176° |
| 2026-04-23 10:55 | -3.38669 | 121.12290 | 30143 ft | 455 kts | 176° |
| 2026-04-23 10:55 | -3.41841 | 121.12344 | 29960 ft | 456 kts | 176° |
| 2026-04-23 10:56 | -3.48202 | 121.12449 | 29894 ft | 457 kts | 176° |
| 2026-04-23 10:56 | -3.54552 | 121.12554 | 29886 ft | 456 kts | 176° |
| 2026-04-23 10:57 | -3.60853 | 121.12660 | 29882 ft | 456 kts | 177° |
| 2026-04-23 10:57 | -3.67199 | 121.12768 | 29869 ft | 456 kts | 177° |
| 2026-04-23 10:58 | -3.73541 | 121.12875 | 29876 ft | 456 kts | 176° |
| 2026-04-23 10:58 | -3.79880 | 121.12983 | 29862 ft | 456 kts | 177° |
| 2026-04-23 10:59 | -3.86220 | 121.13090 | 29864 ft | 455 kts | 177° |
| 2026-04-23 10:59 | -3.92527 | 121.13196 | 29518 ft | 446 kts | 177° |
| 2026-04-23 11:00 | -3.95586 | 121.12919 | 29220 ft | 441 kts | 193° |
| 2026-04-23 11:00 | -3.98411 | 121.11772 | 28994 ft | 439 kts | 208° |
| 2026-04-23 11:00 | -4.00888 | 121.10016 | 28745 ft | 442 kts | 221° |
| 2026-04-23 11:00 | -4.03078 | 121.07844 | 28515 ft | 443 kts | 224° |
| 2026-04-23 11:01 | -4.05225 | 121.05635 | 28251 ft | 443 kts | 224° |
| 2026-04-23 11:01 | -4.07371 | 121.03416 | 28002 ft | 443 kts | 224° |
| 2026-04-23 11:01 | -4.09519 | 121.01206 | 27754 ft | 443 kts | 224° |
| 2026-04-23 11:01 | -4.11560 | 120.99121 | 27520 ft | 441 kts | 224° |
| 2026-04-23 11:02 | -4.13715 | 120.96932 | 27273 ft | 440 kts | 224° |
| 2026-04-23 11:02 | -4.15863 | 120.94760 | 27022 ft | 438 kts | 224° |
| 2026-04-23 11:02 | -4.18002 | 120.92600 | 26785 ft | 436 kts | 224° |
| 2026-04-23 11:02 | -4.20131 | 120.90455 | 26550 ft | 433 kts | 224° |
| 2026-04-23 11:03 | -4.22250 | 120.88319 | 26307 ft | 431 kts | 224° |
| 2026-04-23 11:03 | -4.24358 | 120.86195 | 26071 ft | 429 kts | 224° |
| 2026-04-23 11:03 | -4.26456 | 120.84080 | 25840 ft | 427 kts | 224° |
| 2026-04-23 11:03 | -4.28515 | 120.82003 | 25610 ft | 425 kts | 224° |
| 2026-04-23 11:04 | -4.30597 | 120.79904 | 25384 ft | 423 kts | 224° |
| 2026-04-23 11:04 | -4.32667 | 120.77816 | 25159 ft | 421 kts | 224° |
| 2026-04-23 11:04 | -4.34726 | 120.75739 | 24934 ft | 420 kts | 224° |
| 2026-04-23 11:04 | -4.36782 | 120.73666 | 24708 ft | 418 kts | 224° |
| 2026-04-23 11:05 | -4.38824 | 120.71605 | 24484 ft | 417 kts | 224° |
| 2026-04-23 11:05 | -4.40864 | 120.69546 | 24266 ft | 416 kts | 224° |
| 2026-04-23 11:05 | -4.42901 | 120.67491 | 24048 ft | 415 kts | 224° |
| 2026-04-23 11:05 | -4.44934 | 120.65439 | 23832 ft | 414 kts | 224° |
| 2026-04-23 11:06 | -4.48965 | 120.61371 | 23206 ft | 409 kts | 224° |
| 2026-04-23 11:06 | -4.50960 | 120.59357 | 22762 ft | 406 kts | 224° |
| 2026-04-23 11:06 | -4.52895 | 120.57401 | 22360 ft | 402 kts | 224° |
| 2026-04-23 11:07 | -4.54779 | 120.55499 | 21940 ft | 399 kts | 224° |
| 2026-04-23 11:07 | -4.56726 | 120.53533 | 21520 ft | 396 kts | 224° |
| 2026-04-23 11:07 | -4.58666 | 120.51576 | 21084 ft | 395 kts | 224° |
| 2026-04-23 11:07 | -4.60594 | 120.49629 | 20692 ft | 392 kts | 224° |
| 2026-04-23 11:08 | -4.62496 | 120.47710 | 20388 ft | 386 kts | 224° |
| 2026-04-23 11:08 | -4.64384 | 120.45802 | 19996 ft | 384 kts | 224° |
| 2026-04-23 11:08 | -4.66260 | 120.43907 | 19609 ft | 382 kts | 224° |
| 2026-04-23 11:08 | -4.68126 | 120.42022 | 19197 ft | 381 kts | 225° |
| 2026-04-23 11:09 | -4.69990 | 120.40138 | 18788 ft | 380 kts | 225° |
| 2026-04-23 11:09 | -4.71852 | 120.38256 | 18369 ft | 380 kts | 225° |
| 2026-04-23 11:09 | -4.73710 | 120.36379 | 17927 ft | 379 kts | 225° |
| 2026-04-23 11:09 | -4.75562 | 120.34507 | 17496 ft | 377 kts | 225° |
| 2026-04-23 11:10 | -4.77402 | 120.32646 | 17075 ft | 375 kts | 225° |
| 2026-04-23 11:10 | -4.79230 | 120.30798 | 16671 ft | 373 kts | 225° |
| 2026-04-23 11:10 | -4.81050 | 120.28958 | 16258 ft | 371 kts | 225° |
| 2026-04-23 11:10 | -4.82859 | 120.27129 | 15855 ft | 369 kts | 225° |
| 2026-04-23 11:11 | -4.84639 | 120.25330 | 15467 ft | 368 kts | 225° |
| 2026-04-23 11:11 | -4.86382 | 120.23446 | 15068 ft | 369 kts | 234° |
| 2026-04-23 11:11 | -4.87418 | 120.21105 | 14783 ft | 374 kts | 260° |
| 2026-04-23 11:11 | -4.87473 | 120.18465 | 14542 ft | 384 kts | 276° |
| 2026-04-23 11:12 | -4.87304 | 120.15759 | 14227 ft | 392 kts | 268° |
| 2026-04-23 11:12 | -4.87827 | 120.13088 | 13938 ft | 391 kts | 248° |
| 2026-04-23 11:12 | -4.89312 | 120.10846 | 13645 ft | 388 kts | 223° |
| 2026-04-23 11:12 | -4.91351 | 120.09073 | 13336 ft | 390 kts | 227° |
| 2026-04-23 11:13 | -4.92745 | 120.06772 | 13008 ft | 383 kts | 251° |
| 2026-04-23 11:13 | -4.93493 | 120.04268 | 12739 ft | 367 kts | 252° |
| 2026-04-23 11:13 | -4.94319 | 120.01911 | 12452 ft | 351 kts | 252° |
| 2026-04-23 11:13 | -4.94664 | 119.99668 | 12187 ft | 336 kts | 274° |
| 2026-04-23 11:14 | -4.94201 | 119.97421 | 11971 ft | 327 kts | 292° |
| 2026-04-23 11:14 | -4.93156 | 119.95412 | 11755 ft | 333 kts | 307° |
| 2026-04-23 11:14 | -4.91514 | 119.93738 | 11524 ft | 334 kts | 322° |
| 2026-04-23 11:14 | -4.89715 | 119.92316 | 11273 ft | 334 kts | 324° |
| 2026-04-23 11:15 | -4.87856 | 119.90912 | 11032 ft | 335 kts | 324° |
| 2026-04-23 11:15 | -4.86005 | 119.89520 | 10770 ft | 328 kts | 324° |
| 2026-04-23 11:15 | -4.84223 | 119.88169 | 10528 ft | 314 kts | 324° |
| 2026-04-23 11:15 | -4.82520 | 119.86867 | 10295 ft | 302 kts | 324° |
| 2026-04-23 11:16 | -4.80882 | 119.85609 | 10081 ft | 291 kts | 324° |
| 2026-04-23 11:16 | -4.79298 | 119.84389 | 9880 ft | 284 kts | 324° |
| 2026-04-23 11:16 | -4.77736 | 119.83185 | 9679 ft | 282 kts | 324° |
| 2026-04-23 11:16 | -4.76173 | 119.81979 | 9457 ft | 285 kts | 324° |
| 2026-04-23 11:17 | -4.74592 | 119.80759 | 9247 ft | 288 kts | 324° |
| 2026-04-23 11:17 | -4.72994 | 119.79524 | 9032 ft | 291 kts | 324° |
| 2026-04-23 11:17 | -4.71398 | 119.78290 | 8805 ft | 288 kts | 324° |
| 2026-04-23 11:17 | -4.69822 | 119.77072 | 8591 ft | 284 kts | 323° |
| 2026-04-23 11:18 | -4.68264 | 119.75869 | 8371 ft | 281 kts | 324° |
| 2026-04-23 11:18 | -4.66928 | 119.74458 | 8156 ft | 283 kts | 299° |
| 2026-04-23 11:18 | -4.66397 | 119.72564 | 7943 ft | 288 kts | 271° |
| 2026-04-23 11:18 | -4.66800 | 119.70602 | 7619 ft | 291 kts | 244° |
| 2026-04-23 11:19 | -4.67897 | 119.68907 | 7290 ft | 290 kts | 232° |
| 2026-04-23 11:19 | -4.69132 | 119.67296 | 6908 ft | 291 kts | 231° |
| 2026-04-23 11:19 | -4.70365 | 119.65684 | 6580 ft | 292 kts | 231° |
| 2026-04-23 11:19 | -4.71734 | 119.64191 | 6202 ft | 292 kts | 212° |
| 2026-04-23 11:20 | -4.73566 | 119.63453 | 6073 ft | 278 kts | 187° |
| 2026-04-23 11:20 | -4.74818 | 119.63358 | 6041 ft | 269 kts | 174° |
| 2026-04-23 11:20 | -4.76628 | 119.63566 | 6006 ft | 255 kts | 169° |
| 2026-04-23 11:20 | -4.78337 | 119.63822 | 5993 ft | 243 kts | 168° |
| 2026-04-23 11:21 | -4.80042 | 119.64081 | 5413 ft | 256 kts | 169° |
| 2026-04-23 11:21 | -4.81834 | 119.64343 | 5019 ft | 262 kts | 169° |
| 2026-04-23 11:21 | -4.83615 | 119.64594 | 4858 ft | 254 kts | 169° |
| 2026-04-23 11:21 | -4.85346 | 119.64834 | 4725 ft | 247 kts | 168° |
| 2026-04-23 11:22 | -4.87014 | 119.65067 | 4648 ft | 237 kts | 168° |
| 2026-04-23 11:22 | -4.88593 | 119.65358 | 4434 ft | 225 kts | 171° |
| 2026-04-23 11:22 | -4.90117 | 119.65237 | 4088 ft | 228 kts | 195° |
| 2026-04-23 11:22 | -4.91472 | 119.64533 | 4006 ft | 215 kts | 211° |
| 2026-04-23 11:23 | -4.92763 | 119.63776 | 3446 ft | 220 kts | 206° |
| 2026-04-23 11:23 | -4.94119 | 119.63054 | 2941 ft | 220 kts | 204° |
| 2026-04-23 11:23 | -4.95455 | 119.62368 | 2541 ft | 211 kts | 207° |
| 2026-04-23 11:23 | -4.96694 | 119.61670 | 2258 ft | 197 kts | 208° |
| 2026-04-23 11:24 | -4.97842 | 119.61004 | 2011 ft | 184 kts | 209° |
| 2026-04-23 11:24 | -4.98898 | 119.60390 | 1837 ft | 165 kts | 209° |
| 2026-04-23 11:24 | -4.99877 | 119.59822 | 1609 ft | 160 kts | 209° |
| 2026-04-23 11:24 | -5.00828 | 119.59270 | 1416 ft | 158 kts | 210° |
| 2026-04-23 11:25 | -5.01779 | 119.58718 | 1212 ft | 158 kts | 210° |
| 2026-04-23 11:25 | -5.02733 | 119.58164 | 993 ft | 158 kts | 210° |
| 2026-04-23 11:25 | -5.03685 | 119.57611 | 776 ft | 159 kts | 209° |
| 2026-04-23 11:25 | -5.04623 | 119.57056 | 567 ft | 156 kts | 210° |
| 2026-04-23 11:26 | -5.05568 | 119.56509 | 374 ft | 159 kts | 208° |
| 2026-04-23 11:26 | -5.06529 | 119.55956 | 143 ft | 158 kts | 209° |
| 2026-04-23 11:26 | -5.07438 | 119.55438 | 40 ft | 142 kts | 208° |
| 2026-04-23 11:26 | -5.08164 | 119.55019 | 39 ft | 99 kts | 210° |
| 2026-04-23 11:27 | -5.08505 | 119.54822 | 40 ft | 21 kts | 211° |
| 2026-04-23 11:27 | -5.08543 | 119.54800 | 40 ft | 1 kts | 211° |
| 2026-04-23 11:27 | -5.08569 | 119.54782 | 40 ft | 6 kts | 228° |
| 2026-04-23 11:27 | -5.08563 | 119.54744 | 40 ft | 6 kts | 291° |
| 2026-04-23 11:28 | -5.08571 | 119.54696 | 37 ft | 9 kts | 240° |
| 2026-04-23 11:28 | -5.08603 | 119.54641 | 39 ft | 9 kts | 240° |
| 2026-04-23 11:28 | -5.08600 | 119.54581 | 41 ft | 9 kts | 294° |
| 2026-04-23 11:28 | -5.08568 | 119.54525 | 40 ft | 10 kts | 297° |
| 2026-04-23 11:29 | -5.08533 | 119.54462 | 40 ft | 10 kts | 300° |
| 2026-04-23 11:29 | -5.08475 | 119.54426 | 40 ft | 10 kts | 335° |
| 2026-04-23 11:29 | -5.08414 | 119.54432 | 40 ft | 10 kts | 41° |
| 2026-04-23 11:29 | -5.08358 | 119.54472 | 40 ft | 10 kts | 31° |
| 2026-04-23 11:30 | -5.08297 | 119.54507 | 40 ft | 10 kts | 29° |
| 2026-04-23 11:30 | -5.08237 | 119.54540 | 40 ft | 10 kts | 29° |
| 2026-04-23 11:30 | -5.08179 | 119.54574 | 40 ft | 10 kts | 31° |
| 2026-04-23 11:30 | -5.08122 | 119.54608 | 40 ft | 9 kts | 31° |
| 2026-04-23 11:31 | -5.08068 | 119.54641 | 40 ft | 9 kts | 31° |
| 2026-04-23 11:31 | -5.08015 | 119.54672 | 40 ft | 8 kts | 31° |